Time;durP1;ratioP1;P1;durP2;ratioP2;P2;SDS_P1;SDS_P2;PMS_P1;PMS_P2;Temp;Humidity;BMP_temperature;BMP_pressure;BME280_temperature;BME280_humidity;BME280_pressure;Samples;Min_cycle;Max_cycle;Signal;HPM_P1;HPM_P2
2021/09/12 00:02:16;;;;;;;5.10;3.63;;;;;;;;;;5033381;28;20079;-64
2021/09/12 00:04:41;;;;;;;5.15;3.38;;;;;;;;;;5034660;28;20052;-64
2021/09/12 00:07:06;;;;;;;5.95;3.50;;;;;;;;;;5015535;28;20045;-65
2021/09/12 00:09:31;;;;;;;5.82;3.70;;;;;;;;;;5014503;28;20057;-64
2021/09/12 00:11:56;;;;;;;6.68;4.00;;;;;;;;;;5014424;28;20063;-65
2021/09/12 00:14:22;;;;;;;7.50;3.95;;;;;;;;;;5014710;28;20492;-65
2021/09/12 00:16:47;;;;;;;7.65;4.10;;;;;;;;;;5014234;28;20089;-66
2021/09/12 00:19:12;;;;;;;9.25;3.83;;;;;;;;;;5014496;28;20084;-65
2021/09/12 00:21:37;;;;;;;7.65;3.75;;;;;;;;;;5014038;28;20080;-64
2021/09/12 00:24:03;;;;;;;8.95;3.85;;;;;;;;;;5013141;28;20028;-64
2021/09/12 00:26:28;;;;;;;9.20;4.50;;;;;;;;;;5013989;28;20042;-65
2021/09/12 00:28:53;;;;;;;6.25;3.88;;;;;;;;;;5013210;28;20041;-64
2021/09/12 00:31:19;;;;;;;8.60;3.75;;;;;;;;;;5013586;28;20058;-64
2021/09/12 00:33:44;;;;;;;7.72;4.00;;;;;;;;;;5013025;28;20033;-64
2021/09/12 00:36:09;;;;;;;5.55;3.80;;;;;;;;;;5012598;28;20025;-64
2021/09/12 00:38:34;;;;;;;7.53;4.15;;;;;;;;;;5014138;28;20037;-65
2021/09/12 00:41:00;;;;;;;5.93;3.92;;;;;;;;;;5013793;28;20034;-64
2021/09/12 00:43:25;;;;;;;5.75;4.15;;;;;;;;;;5012870;28;20137;-64
2021/09/12 00:45:54;;;;;;;8.48;3.97;;;;;;;;;;5013714;28;20461;-65
2021/09/12 00:48:19;;;;;;;9.55;4.18;;;;;;;;;;5012713;28;20025;-64
2021/09/12 00:50:45;;;;;;;9.02;4.40;;;;;;;;;;5013647;28;20030;-65
2021/09/12 00:53:10;;;;;;;9.05;4.10;;;;;;;;;;5013988;28;20065;-65
2021/09/12 00:55:35;;;;;;;8.13;3.78;;;;;;;;;;5012327;28;20036;-65
2021/09/12 00:58:00;;;;;;;6.82;4.13;;;;;;;;;;5012468;28;20029;-65
2021/09/12 01:00:26;;;;;;;9.00;4.32;;;;;;;;;;5011871;28;20029;-64
2021/09/12 01:02:52;;;;;;;6.70;4.20;;;;;;;;;;5012631;28;20026;-64
2021/09/12 01:05:17;;;;;;;5.05;4.00;;;;;;;;;;5012069;28;20030;-65
2021/09/12 01:07:42;;;;;;;7.35;4.40;;;;;;;;;;5013535;28;20075;-65
2021/09/12 01:10:08;;;;;;;12.15;4.18;;;;;;;;;;5012955;28;20053;-64
2021/09/12 01:12:33;;;;;;;8.93;4.05;;;;;;;;;;5013485;28;20022;-65
2021/09/12 01:14:59;;;;;;;10.63;4.57;;;;;;;;;;5012434;28;20520;-64
2021/09/12 01:17:25;;;;;;;6.55;4.05;;;;;;;;;;5012865;28;20033;-64
2021/09/12 01:19:50;;;;;;;6.03;4.07;;;;;;;;;;5013392;28;20029;-64
2021/09/12 01:22:15;;;;;;;6.63;4.05;;;;;;;;;;5013067;28;20034;-64
2021/09/12 01:24:40;;;;;;;6.07;4.45;;;;;;;;;;5012007;28;20088;-64
2021/09/12 01:27:06;;;;;;;6.43;4.10;;;;;;;;;;5012922;28;20049;-64
2021/09/12 01:29:31;;;;;;;6.28;4.35;;;;;;;;;;5013194;28;20587;-64
2021/09/12 01:31:56;;;;;;;7.68;4.80;;;;;;;;;;5012934;28;20038;-64
2021/09/12 01:34:21;;;;;;;9.23;4.30;;;;;;;;;;5013221;28;20018;-64
2021/09/12 01:36:47;;;;;;;7.88;4.55;;;;;;;;;;5012689;28;20088;-64
2021/09/12 01:39:12;;;;;;;7.22;4.85;;;;;;;;;;5013055;28;20080;-64
2021/09/12 01:41:37;;;;;;;7.10;4.65;;;;;;;;;;5012702;28;20080;-64
2021/09/12 01:44:03;;;;;;;8.05;4.40;;;;;;;;;;5013087;28;20022;-65
2021/09/12 01:46:28;;;;;;;6.05;4.30;;;;;;;;;;5012558;28;20084;-65
2021/09/12 01:48:54;;;;;;;7.78;4.30;;;;;;;;;;5013042;28;20017;-64
2021/09/12 01:51:19;;;;;;;5.50;4.20;;;;;;;;;;5012439;28;20461;-64
2021/09/12 01:53:44;;;;;;;8.82;4.82;;;;;;;;;;5013046;28;20026;-64
2021/09/12 01:56:10;;;;;;;7.22;4.43;;;;;;;;;;5012493;28;20037;-64
2021/09/12 01:58:35;;;;;;;10.27;4.70;;;;;;;;;;5012822;28;20057;-64
2021/09/12 02:01:00;;;;;;;8.40;4.60;;;;;;;;;;5012536;28;20499;-64
2021/09/12 02:03:26;;;;;;;7.90;4.70;;;;;;;;;;5012941;28;20084;-64
2021/09/12 02:05:51;;;;;;;7.95;4.35;;;;;;;;;;5012393;28;20064;-64
2021/09/12 02:08:16;;;;;;;11.15;5.10;;;;;;;;;;5012608;28;20117;-64
2021/09/12 02:10:42;;;;;;;8.65;4.63;;;;;;;;;;5012112;28;20088;-64
2021/09/12 02:13:08;;;;;;;9.98;5.10;;;;;;;;;;5012911;28;20027;-64
2021/09/12 02:15:33;;;;;;;11.18;5.18;;;;;;;;;;5012387;28;20034;-64
2021/09/12 02:17:58;;;;;;;11.52;5.65;;;;;;;;;;5012596;28;20072;-64
2021/09/12 02:20:23;;;;;;;9.57;5.28;;;;;;;;;;5012301;28;20037;-64
2021/09/12 02:22:48;;;;;;;10.48;5.20;;;;;;;;;;5012710;28;20030;-64
2021/09/12 02:25:14;;;;;;;7.53;5.10;;;;;;;;;;5013179;28;20018;-64
2021/09/12 02:27:39;;;;;;;9.25;5.93;;;;;;;;;;5016597;28;20025;-64
2021/09/12 02:30:04;;;;;;;8.05;5.55;;;;;;;;;;5015995;28;20068;-64
2021/09/12 02:32:30;;;;;;;9.38;5.43;;;;;;;;;;5015936;28;20014;-64
2021/09/12 02:34:55;;;;;;;10.93;5.70;;;;;;;;;;5016471;28;20133;-64
2021/09/12 02:37:21;;;;;;;11.77;5.20;;;;;;;;;;5015401;28;20443;-64
2021/09/12 02:39:46;;;;;;;9.30;5.47;;;;;;;;;;5016268;28;20121;-64
2021/09/12 02:42:11;;;;;;;8.63;5.55;;;;;;;;;;5015820;28;20105;-64
2021/09/12 02:44:36;;;;;;;10.10;6.45;;;;;;;;;;5016275;28;20026;-64
2021/09/12 02:47:02;;;;;;;9.55;5.38;;;;;;;;;;5015756;28;20026;-64
2021/09/12 02:49:27;;;;;;;9.75;6.32;;;;;;;;;;5016126;28;20101;-64
2021/09/12 02:51:52;;;;;;;9.50;6.15;;;;;;;;;;5015773;28;20034;-64
2021/09/12 02:54:17;;;;;;;12.02;5.82;;;;;;;;;;5016019;28;20044;-64
2021/09/12 02:56:43;;;;;;;10.70;6.32;;;;;;;;;;5015607;28;20092;-64
2021/09/12 02:59:08;;;;;;;11.05;6.80;;;;;;;;;;5015918;28;20038;-64
2021/09/12 03:01:33;;;;;;;10.60;6.60;;;;;;;;;;5015484;28;20050;-64
2021/09/12 03:03:58;;;;;;;14.10;7.13;;;;;;;;;;5015884;28;20018;-64
2021/09/12 03:06:24;;;;;;;10.48;5.90;;;;;;;;;;5015393;28;20026;-64
2021/09/12 03:08:49;;;;;;;11.57;6.70;;;;;;;;;;5015725;28;20041;-63
2021/09/12 03:11:14;;;;;;;9.35;6.55;;;;;;;;;;5014277;28;20030;-64
2021/09/12 03:13:39;;;;;;;10.93;6.22;;;;;;;;;;5015886;28;20025;-64
2021/09/12 03:16:05;;;;;;;13.70;6.50;;;;;;;;;;5015245;28;20093;-64
2021/09/12 03:18:30;;;;;;;9.18;6.25;;;;;;;;;;5015571;28;20030;-64
2021/09/12 03:20:55;;;;;;;10.75;6.75;;;;;;;;;;5015101;28;20061;-64
2021/09/12 03:23:20;;;;;;;11.55;6.60;;;;;;;;;;5015738;28;20046;-64
2021/09/12 03:25:45;;;;;;;10.10;6.40;;;;;;;;;;5015312;28;20037;-64
2021/09/12 03:28:11;;;;;;;11.98;7.03;;;;;;;;;;5014345;28;20025;-64
2021/09/12 03:30:36;;;;;;;12.13;6.65;;;;;;;;;;5015173;28;20030;-64
2021/09/12 03:33:01;;;;;;;12.43;6.90;;;;;;;;;;5015357;28;20021;-64
2021/09/12 03:35:26;;;;;;;12.25;6.65;;;;;;;;;;5014057;28;20033;-64
2021/09/12 03:37:52;;;;;;;12.95;6.40;;;;;;;;;;5014566;28;20037;-64
2021/09/12 03:40:17;;;;;;;12.35;6.40;;;;;;;;;;5014986;28;20269;-64
2021/09/12 03:42:42;;;;;;;11.77;7.53;;;;;;;;;;5015074;28;20026;-64
2021/09/12 03:45:08;;;;;;;12.43;6.63;;;;;;;;;;5014724;28;20024;-64
2021/09/12 03:47:33;;;;;;;11.90;7.22;;;;;;;;;;5014980;28;20018;-64
2021/09/12 03:49:58;;;;;;;11.13;6.45;;;;;;;;;;5015008;28;20033;-64
2021/09/12 03:52:23;;;;;;;12.82;7.40;;;;;;;;;;5014624;28;20099;-64
2021/09/12 03:54:48;;;;;;;13.68;6.65;;;;;;;;;;5015075;28;20029;-64
2021/09/12 03:57:14;;;;;;;10.23;6.18;;;;;;;;;;5014371;28;20029;-65
2021/09/12 03:59:39;;;;;;;9.07;6.22;;;;;;;;;;5014863;28;20118;-64
2021/09/12 04:02:04;;;;;;;11.60;7.15;;;;;;;;;;5014374;28;20041;-64
2021/09/12 04:04:29;;;;;;;11.15;6.63;;;;;;;;;;5014735;28;20028;-64
2021/09/12 04:06:54;;;;;;;12.32;6.32;;;;;;;;;;5014264;28;20109;-63
2021/09/12 04:09:20;;;;;;;11.98;7.45;;;;;;;;;;5014647;28;20054;-64
2021/09/12 04:11:45;;;;;;;15.18;6.50;;;;;;;;;;5014212;28;20113;-64
2021/09/12 04:14:11;;;;;;;10.63;7.18;;;;;;;;;;5014656;28;20029;-64
2021/09/12 04:16:36;;;;;;;13.88;6.80;;;;;;;;;;5014125;28;20033;-64
2021/09/12 04:19:01;;;;;;;8.48;6.07;;;;;;;;;;5014397;28;20029;-64
2021/09/12 04:21:26;;;;;;;12.75;7.07;;;;;;;;;;5013995;28;20041;-64
2021/09/12 04:23:52;;;;;;;11.88;6.53;;;;;;;;;;5014393;28;20030;-64
2021/09/12 04:26:17;;;;;;;15.48;7.28;;;;;;;;;;5013960;28;20036;-64
2021/09/12 04:28:42;;;;;;;13.30;8.27;;;;;;;;;;5014319;28;20061;-64
2021/09/12 04:31:07;;;;;;;9.85;6.90;;;;;;;;;;5013879;28;20061;-64
2021/09/12 04:33:33;;;;;;;9.63;6.43;;;;;;;;;;5014201;28;20045;-64
2021/09/12 04:35:58;;;;;;;11.68;6.78;;;;;;;;;;5013724;28;20073;-64
2021/09/12 04:38:23;;;;;;;14.57;6.90;;;;;;;;;;5013521;28;20034;-64
2021/09/12 04:40:48;;;;;;;10.15;6.80;;;;;;;;;;5013571;28;20092;-64
2021/09/12 04:43:14;;;;;;;10.95;6.85;;;;;;;;;;5013990;28;20030;-63
2021/09/12 04:45:39;;;;;;;10.80;5.97;;;;;;;;;;5012256;28;20041;-64
2021/09/12 04:48:04;;;;;;;12.15;6.88;;;;;;;;;;5014063;28;20085;-64
2021/09/12 04:50:29;;;;;;;10.35;7.40;;;;;;;;;;5012325;28;20045;-63
2021/09/12 04:52:55;;;;;;;12.25;7.25;;;;;;;;;;5012643;28;20064;-64
2021/09/12 04:55:20;;;;;;;14.80;8.13;;;;;;;;;;5013803;28;20046;-64
2021/09/12 04:57:45;;;;;;;13.05;7.75;;;;;;;;;;5013823;28;20048;-64
2021/09/12 05:00:11;;;;;;;12.07;6.70;;;;;;;;;;5013528;28;20017;-63
2021/09/12 05:02:36;;;;;;;13.75;7.93;;;;;;;;;;5013809;28;20492;-63
2021/09/12 05:05:01;;;;;;;11.63;7.70;;;;;;;;;;5013127;28;20372;-64
2021/09/12 05:07:26;;;;;;;11.98;8.10;;;;;;;;;;4996047;28;20014;-64
2021/09/12 05:09:51;;;;;;;14.77;7.90;;;;;;;;;;5013452;28;20115;-64
2021/09/12 05:12:17;;;;;;;12.70;8.35;;;;;;;;;;5013235;28;20393;-64
2021/09/12 05:14:42;;;;;;;11.32;7.22;;;;;;;;;;5013654;28;20436;-64
2021/09/12 05:17:07;;;;;;;12.57;8.00;;;;;;;;;;5012991;28;20502;-64
2021/09/12 05:19:32;;;;;;;11.40;7.68;;;;;;;;;;5013372;28;20456;-64
2021/09/12 05:21:58;;;;;;;17.13;7.82;;;;;;;;;;5012893;28;20125;-64
2021/09/12 05:24:23;;;;;;;14.20;8.40;;;;;;;;;;5013485;28;20109;-64
2021/09/12 05:26:48;;;;;;;15.25;7.50;;;;;;;;;;5012967;28;20439;-63
2021/09/12 05:29:13;;;;;;;11.15;8.05;;;;;;;;;;5013317;28;20287;-64
2021/09/12 05:31:38;;;;;;;12.55;6.93;;;;;;;;;;5013021;28;20044;-63
2021/09/12 05:34:04;;;;;;;12.57;8.07;;;;;;;;;;5013240;28;20069;-64
2021/09/12 05:36:29;;;;;;;11.15;7.78;;;;;;;;;;5012920;28;20117;-63
2021/09/12 05:38:54;;;;;;;11.65;8.07;;;;;;;;;;5012152;28;20041;-63
2021/09/12 05:41:20;;;;;;;8.20;5.47;;;;;;;;;;5012903;28;20455;-64
2021/09/12 05:43:45;;;;;;;12.20;7.20;;;;;;;;;;5013067;28;20487;-64
2021/09/12 05:46:10;;;;;;;10.68;7.68;;;;;;;;;;5012884;28;20030;-63
2021/09/12 05:48:35;;;;;;;11.32;8.05;;;;;;;;;;5013104;28;20465;-65
2021/09/12 05:51:01;;;;;;;11.73;7.25;;;;;;;;;;5012498;28;20033;-64
2021/09/12 05:53:27;;;;;;;11.35;7.32;;;;;;;;;;5013038;28;20033;-64
2021/09/12 05:55:52;;;;;;;11.98;6.78;;;;;;;;;;5012756;28;20037;-64
2021/09/12 05:58:18;;;;;;;8.95;6.28;;;;;;;;;;5012951;28;20536;-64
2021/09/12 06:00:43;;;;;;;12.13;7.65;;;;;;;;;;5015594;28;20026;-64
2021/09/12 06:03:08;;;;;;;12.18;7.95;;;;;;;;;;5017122;28;20014;-64
2021/09/12 06:05:33;;;;;;;11.68;8.60;;;;;;;;;;5016681;28;20543;-65
2021/09/12 06:07:59;;;;;;;12.05;8.20;;;;;;;;;;5015747;28;20423;-64
2021/09/12 06:10:27;;;;;;;12.43;8.32;;;;;;;;;;5016312;28;20443;-64
2021/09/12 06:12:52;;;;;;;11.70;7.57;;;;;;;;;;5016990;28;20022;-64
2021/09/12 06:15:18;;;;;;;11.52;7.82;;;;;;;;;;5016298;28;20423;-64
2021/09/12 06:17:43;;;;;;;12.02;7.70;;;;;;;;;;5016827;28;20469;-64
2021/09/12 06:20:08;;;;;;;10.05;7.63;;;;;;;;;;5016212;28;20025;-64
2021/09/12 06:22:33;;;;;;;10.95;7.80;;;;;;;;;;5016827;28;20044;-64
2021/09/12 06:24:59;;;;;;;10.65;7.15;;;;;;;;;;5016832;28;20052;-64
2021/09/12 06:27:24;;;;;;;9.43;7.05;;;;;;;;;;5016199;28;20041;-64
2021/09/12 06:29:49;;;;;;;11.18;6.95;;;;;;;;;;5016100;28;20021;-64
2021/09/12 06:32:14;;;;;;;8.02;5.55;;;;;;;;;;5016121;28;20038;-64
2021/09/12 06:34:39;;;;;;;8.35;5.68;;;;;;;;;;5016360;28;20022;-64
2021/09/12 06:37:06;;;;;;;10.52;5.72;;;;;;;;;;5016088;28;20034;-65
2021/09/12 06:39:31;;;;;;;7.63;4.85;;;;;;;;;;5016500;28;20065;-65
2021/09/12 06:41:56;;;;;;;7.20;4.95;;;;;;;;;;5015848;28;20115;-64
2021/09/12 06:44:21;;;;;;;8.55;4.65;;;;;;;;;;5016324;28;20030;-64
2021/09/12 06:46:47;;;;;;;7.63;4.47;;;;;;;;;;5015872;28;20033;-64
2021/09/12 06:49:12;;;;;;;6.53;4.65;;;;;;;;;;5016278;28;20121;-63
2021/09/12 06:51:37;;;;;;;6.13;4.43;;;;;;;;;;5014579;28;20034;-65
2021/09/12 06:54:02;;;;;;;7.30;5.10;;;;;;;;;;5016188;28;20018;-64
2021/09/12 06:56:28;;;;;;;10.05;5.47;;;;;;;;;;5014329;28;20042;-64
2021/09/12 06:58:53;;;;;;;7.88;5.25;;;;;;;;;;5016109;28;20033;-64
2021/09/12 07:01:18;;;;;;;8.75;5.72;;;;;;;;;;5014597;28;20365;-64
2021/09/12 07:03:43;;;;;;;8.05;6.10;;;;;;;;;;5015872;28;20026;-64
2021/09/12 07:06:09;;;;;;;6.55;5.47;;;;;;;;;;5015162;28;20435;-64
2021/09/12 07:08:34;;;;;;;7.97;5.80;;;;;;;;;;5015879;28;20033;-64
2021/09/12 07:10:59;;;;;;;7.20;5.78;;;;;;;;;;5015399;28;20488;-64
2021/09/12 07:13:24;;;;;;;9.35;6.03;;;;;;;;;;5015777;28;20033;-64
2021/09/12 07:15:49;;;;;;;10.30;7.07;;;;;;;;;;5015238;28;20060;-64
2021/09/12 07:18:15;;;;;;;10.32;6.65;;;;;;;;;;5015249;28;20034;-64
2021/09/12 07:20:40;;;;;;;10.15;7.00;;;;;;;;;;5015409;28;20038;-64
2021/09/12 07:23:06;;;;;;;9.52;6.90;;;;;;;;;;5015482;28;20018;-64
2021/09/12 07:25:31;;;;;;;9.00;6.25;;;;;;;;;;5014628;28;20600;-64
2021/09/12 07:27:56;;;;;;;9.40;6.20;;;;;;;;;;5015502;28;20036;-64
2021/09/12 07:30:22;;;;;;;9.82;6.93;;;;;;;;;;5015092;28;20125;-64
2021/09/12 07:32:47;;;;;;;11.82;7.15;;;;;;;;;;5015419;28;20034;-64
2021/09/12 07:35:12;;;;;;;9.70;7.18;;;;;;;;;;5014964;28;20018;-64
2021/09/12 07:37:38;;;;;;;9.43;5.93;;;;;;;;;;5015394;28;20080;-64
2021/09/12 07:40:03;;;;;;;11.75;5.85;;;;;;;;;;5014728;28;20083;-64
2021/09/12 07:42:28;;;;;;;8.40;5.70;;;;;;;;;;5015180;28;20014;-64
2021/09/12 07:44:53;;;;;;;8.75;5.93;;;;;;;;;;5015041;28;20054;-64
2021/09/12 07:47:19;;;;;;;13.10;5.95;;;;;;;;;;5013253;28;20064;-64
2021/09/12 07:49:44;;;;;;;8.90;6.40;;;;;;;;;;5014973;28;20030;-64
2021/09/12 07:52:10;;;;;;;11.20;5.82;;;;;;;;;;5013266;28;20045;-64
2021/09/12 07:54:37;;;;;;;11.05;6.00;;;;;;;;;;5013838;28;20036;-64
2021/09/12 07:57:02;;;;;;;7.63;5.60;;;;;;;;;;5014593;28;20393;-64
2021/09/12 07:59:29;;;;;;;10.10;5.85;;;;;;;;;;5014808;28;20031;-64
2021/09/12 08:01:56;;;;;;;8.32;5.43;;;;;;;;;;5014530;28;20041;-64
2021/09/12 08:04:21;;;;;;;8.05;6.28;;;;;;;;;;5014820;28;20101;-64
2021/09/12 08:06:46;;;;;;;7.93;6.03;;;;;;;;;;5014552;28;20061;-64
2021/09/12 08:09:11;;;;;;;10.43;5.70;;;;;;;;;;5014626;28;20406;-64
2021/09/12 08:11:37;;;;;;;10.18;5.50;;;;;;;;;;5014513;28;20392;-64
2021/09/12 08:14:02;;;;;;;8.13;6.18;;;;;;;;;;5014827;28;20532;-64
2021/09/12 08:16:27;;;;;;;7.95;5.30;;;;;;;;;;5014333;28;20498;-64
2021/09/12 08:18:52;;;;;;;9.07;5.53;;;;;;;;;;5014379;28;20057;-64
2021/09/12 08:21:18;;;;;;;7.63;5.70;;;;;;;;;;5014365;28;20033;-64
2021/09/12 08:23:43;;;;;;;9.25;5.18;;;;;;;;;;5012673;28;20392;-64
2021/09/12 08:26:08;;;;;;;5.78;4.68;;;;;;;;;;5013987;28;20365;-64
2021/09/12 08:28:34;;;;;;;7.13;5.00;;;;;;;;;;5013019;28;20388;-64
2021/09/12 08:31:00;;;;;;;7.80;5.30;;;;;;;;;;5014206;28;20511;-64
2021/09/12 08:33:25;;;;;;;8.18;5.35;;;;;;;;;;5014383;28;20029;-64
2021/09/12 08:35:50;;;;;;;8.05;4.80;;;;;;;;;;5012798;28;20029;-64
2021/09/12 08:38:16;;;;;;;5.97;4.65;;;;;;;;;;5014219;28;20036;-64
2021/09/12 08:40:41;;;;;;;7.32;4.50;;;;;;;;;;5012714;28;20030;-64
2021/09/12 08:43:07;;;;;;;6.15;4.70;;;;;;;;;;5012883;28;20030;-64
2021/09/12 08:45:32;;;;;;;8.25;4.55;;;;;;;;;;5013686;28;20366;-64
2021/09/12 08:47:57;;;;;;;8.55;4.60;;;;;;;;;;5014056;28;20018;-64
2021/09/12 08:50:22;;;;;;;7.95;4.93;;;;;;;;;;5012529;28;20113;-64
2021/09/12 08:52:48;;;;;;;8.32;4.40;;;;;;;;;;5013937;28;20105;-62
2021/09/12 08:55:13;;;;;;;6.57;3.97;;;;;;;;;;5013358;28;20072;-64
2021/09/12 08:57:49;;;;;;;7.00;4.03;;;;;;;;;;5013992;28;20021;-62
2021/09/12 09:00:15;;;;;;;11.27;4.13;;;;;;;;;;5013437;28;20121;-62
2021/09/12 09:02:40;;;;;;;7.75;4.65;;;;;;;;;;5013835;28;20101;-64
2021/09/12 09:05:05;;;;;;;7.93;4.10;;;;;;;;;;5013619;28;20354;-63
2021/09/12 09:07:31;;;;;;;5.47;3.95;;;;;;;;;;5013805;28;20472;-65
2021/09/12 09:09:58;;;;;;;7.22;3.67;;;;;;;;;;5013595;28;20065;-64
2021/09/12 09:12:25;;;;;;;6.75;3.50;;;;;;;;;;5013411;28;20374;-65
2021/09/12 09:15:11;;;;;;;8.13;4.00;;;;;;;;;;5012388;28;20427;-65
2021/09/12 09:17:37;;;;;;;6.57;3.60;;;;;;;;;;5013492;28;20120;-64
2021/09/12 09:20:02;;;;;;;5.03;3.35;;;;;;;;;;5013439;28;20025;-64
2021/09/12 09:22:31;;;;;;;7.05;3.90;;;;;;;;;;5033293;28;20064;-64
2021/09/12 09:24:57;;;;;;;7.10;3.63;;;;;;;;;;5033332;28;20021;-63
2021/09/12 09:27:22;;;;;;;6.75;3.50;;;;;;;;;;5013582;28;20388;-64
2021/09/12 09:29:47;;;;;;;5.65;3.40;;;;;;;;;;5013324;28;20021;-65
2021/09/12 09:32:13;;;;;;;5.22;3.20;;;;;;;;;;5011492;28;20033;-64
2021/09/12 09:34:39;;;;;;;7.50;3.45;;;;;;;;;;5013377;28;20113;-64
2021/09/12 09:37:08;;;;;;;6.55;2.78;;;;;;;;;;5012746;28;20037;-62
2021/09/12 09:39:43;;;;;;;5.18;3.22;;;;;;;;;;5013197;28;20042;-65
2021/09/12 09:42:27;;;;;;;8.32;3.10;;;;;;;;;;5012721;28;20033;-64
2021/09/12 09:44:56;;;;;;;5.18;2.88;;;;;;;;;;5013297;28;20022;-65
2021/09/12 09:47:23;;;;;;;6.10;3.30;;;;;;;;;;5012836;28;20030;-63
2021/09/12 09:49:48;;;;;;;7.80;3.30;;;;;;;;;;5011754;28;20029;-63
2021/09/12 09:52:13;;;;;;;6.03;2.70;;;;;;;;;;5011333;28;20030;-63
2021/09/12 09:54:39;;;;;;;5.07;2.55;;;;;;;;;;5012949;28;20420;-63
2021/09/12 09:57:04;;;;;;;6.30;2.85;;;;;;;;;;5011486;28;20041;-63
2021/09/12 09:59:30;;;;;;;9.02;2.80;;;;;;;;;;5011631;28;20120;-63
2021/09/12 10:01:56;;;;;;;6.63;2.60;;;;;;;;;;5010251;28;20030;-63
2021/09/12 10:04:26;;;;;;;5.35;2.65;;;;;;;;;;5012992;28;20018;-63
2021/09/12 10:06:51;;;;;;;5.35;2.53;;;;;;;;;;5011435;28;20370;-63
2021/09/12 10:09:17;;;;;;;6.95;2.60;;;;;;;;;;5012516;28;20068;-63
2021/09/12 10:11:48;;;;;;;5.32;2.33;;;;;;;;;;5012353;28;20436;-63
2021/09/12 10:14:14;;;;;;;6.15;2.80;;;;;;;;;;5012821;28;20030;-63
2021/09/12 10:16:40;;;;;;;6.07;2.97;;;;;;;;;;5011075;28;20507;-63
2021/09/12 10:19:05;;;;;;;8.70;2.92;;;;;;;;;;5011580;28;20030;-63
2021/09/12 10:21:30;;;;;;;7.07;2.88;;;;;;;;;;5012343;28;20030;-63
2021/09/12 10:24:03;;;;;;;5.55;2.47;;;;;;;;;;5012848;28;20459;-64
2021/09/12 10:26:29;;;;;;;4.65;2.30;;;;;;;;;;5011001;28;20081;-64
2021/09/12 10:28:54;;;;;;;7.47;2.47;;;;;;;;;;4994914;28;20448;-64
2021/09/12 10:31:25;;;;;;;5.00;2.30;;;;;;;;;;5012177;28;20108;-64
2021/09/12 10:34:03;;;;;;;4.53;2.17;;;;;;;;;;5012149;28;20080;-65
2021/09/12 10:36:28;;;;;;;7.40;2.35;;;;;;;;;;5012129;28;20104;-65
2021/09/12 10:38:53;;;;;;;5.17;2.27;;;;;;;;;;5012337;28;20061;-65
2021/09/12 10:41:18;;;;;;;3.72;2.03;;;;;;;;;;5010699;28;20354;-65
2021/09/12 10:43:45;;;;;;;6.60;2.13;;;;;;;;;;5012586;28;20100;-65
2021/09/12 10:46:10;;;;;;;5.10;2.08;;;;;;;;;;5014024;28;20030;-65
2021/09/12 10:48:36;;;;;;;6.43;2.40;;;;;;;;;;5016129;28;20028;-67
2021/09/12 10:51:02;;;;;;;7.55;2.38;;;;;;;;;;5015610;28;20214;-65
2021/09/12 10:53:42;;;;;;;5.18;2.10;;;;;;;;;;5015980;28;20026;-65
2021/09/12 10:56:07;;;;;;;4.78;2.22;;;;;;;;;;5014339;28;20038;-65
2021/09/12 10:58:33;;;;;;;5.45;2.22;;;;;;;;;;5016128;28;20088;-65
2021/09/12 11:00:59;;;;;;;3.63;2.17;;;;;;;;;;5015476;28;20033;-65
2021/09/12 11:03:24;;;;;;;5.15;2.20;;;;;;;;;;5014546;28;20372;-65
2021/09/12 11:05:49;;;;;;;6.80;2.30;;;;;;;;;;5015591;28;20022;-65
2021/09/12 11:08:15;;;;;;;6.43;2.53;;;;;;;;;;5015954;28;20029;-65
2021/09/12 11:10:40;;;;;;;6.85;2.28;;;;;;;;;;5015123;28;20068;-65
2021/09/12 11:13:06;;;;;;;4.53;2.10;;;;;;;;;;5015887;28;20029;-65
2021/09/12 11:15:31;;;;;;;3.90;2.08;;;;;;;;;;5015321;28;20046;-65
2021/09/12 11:17:57;;;;;;;5.00;2.20;;;;;;;;;;5015529;28;20038;-65
2021/09/12 11:20:22;;;;;;;5.03;2.30;;;;;;;;;;5015438;28;20040;-65
2021/09/12 11:22:48;;;;;;;5.97;2.28;;;;;;;;;;5014175;28;20251;-65
2021/09/12 11:25:14;;;;;;;6.55;2.05;;;;;;;;;;5015329;28;20104;-65
2021/09/12 11:27:39;;;;;;;5.22;2.60;;;;;;;;;;5015603;28;20168;-65
2021/09/12 11:30:10;;;;;;;4.45;2.10;;;;;;;;;;5013729;28;20026;-65
2021/09/12 11:32:35;;;;;;;6.63;2.30;;;;;;;;;;5015317;28;20369;-65
2021/09/12 11:35:01;;;;;;;6.03;2.10;;;;;;;;;;5015021;28;20046;-65
2021/09/12 11:37:26;;;;;;;4.40;2.05;;;;;;;;;;5014015;28;20527;-65
2021/09/12 11:39:55;;;;;;;4.38;2.15;;;;;;;;;;5015292;28;20030;-65
2021/09/12 11:42:20;;;;;;;4.25;2.00;;;;;;;;;;5013472;28;20030;-65
2021/09/12 11:44:47;;;;;;;4.38;2.30;;;;;;;;;;5015212;28;20299;-65
2021/09/12 11:47:22;;;;;;;4.15;1.92;;;;;;;;;;5014685;28;20033;-65
2021/09/12 11:50:10;;;;;;;6.15;2.47;;;;;;;;;;5015265;28;20049;-65
2021/09/12 11:52:39;;;;;;;5.72;2.28;;;;;;;;;;5014828;28;20121;-65
2021/09/12 11:55:17;;;;;;;3.63;2.00;;;;;;;;;;5014675;28;20464;-65
2021/09/12 11:57:42;;;;;;;4.93;2.40;;;;;;;;;;5013740;28;20080;-65
2021/09/12 12:00:08;;;;;;;7.65;2.20;;;;;;;;;;5015375;28;20034;-66
2021/09/12 12:02:33;;;;;;;4.90;2.22;;;;;;;;;;5033372;28;20064;-65
2021/09/12 12:04:59;;;;;;;4.95;2.13;;;;;;;;;;5034576;28;20030;-65
2021/09/12 12:07:36;;;;;;;4.55;2.15;;;;;;;;;;5014581;28;20050;-65
2021/09/12 12:10:02;;;;;;;4.30;2.25;;;;;;;;;;5014026;28;20061;-65
2021/09/12 12:12:34;;;;;;;5.88;2.30;;;;;;;;;;5014657;28;20022;-64
2021/09/12 12:15:04;;;;;;;6.95;2.60;;;;;;;;;;5014589;28;20072;-64
2021/09/12 12:17:30;;;;;;;5.93;2.25;;;;;;;;;;5014314;28;20042;-64
2021/09/12 12:19:56;;;;;;;7.72;2.60;;;;;;;;;;5014467;28;20026;-64
2021/09/12 12:22:21;;;;;;;3.55;2.03;;;;;;;;;;5014037;28;20034;-64
2021/09/12 12:24:52;;;;;;;5.97;2.38;;;;;;;;;;5014316;28;20053;-64
2021/09/12 12:27:17;;;;;;;4.60;2.05;;;;;;;;;;5013646;28;20500;-64
2021/09/12 12:30:03;;;;;;;6.07;2.25;;;;;;;;;;5014461;28;20045;-65
2021/09/12 12:32:28;;;;;;;5.13;2.25;;;;;;;;;;5013593;28;20120;-64
2021/09/12 12:34:56;;;;;;;5.50;1.92;;;;;;;;;;5014170;28;20109;-64
2021/09/12 12:37:33;;;;;;;4.57;2.00;;;;;;;;;;5013534;28;20037;-64
2021/09/12 12:39:59;;;;;;;5.38;2.17;;;;;;;;;;5014114;28;20424;-64
2021/09/12 12:42:39;;;;;;;6.40;2.25;;;;;;;;;;5013236;28;20056;-64
2021/09/12 12:45:19;;;;;;;4.05;2.10;;;;;;;;;;5013547;28;20026;-64
2021/09/12 12:47:44;;;;;;;3.70;2.08;;;;;;;;;;5013676;28;20013;-64
2021/09/12 12:50:09;;;;;;;5.43;2.00;;;;;;;;;;5013376;28;20376;-64
2021/09/12 12:52:35;;;;;;;5.78;2.10;;;;;;;;;;5012475;28;20014;-64
2021/09/12 12:55:00;;;;;;;6.50;2.03;;;;;;;;;;5013681;28;20470;-64
2021/09/12 12:57:28;;;;;;;4.40;1.90;;;;;;;;;;5013178;28;20503;-64
2021/09/12 12:59:53;;;;;;;4.72;2.00;;;;;;;;;;5012441;28;20014;-64
2021/09/12 13:02:18;;;;;;;6.85;2.63;;;;;;;;;;5013326;28;20025;-64
2021/09/12 13:04:43;;;;;;;4.15;2.20;;;;;;;;;;5013886;28;20022;-64
2021/09/12 13:07:09;;;;;;;4.88;2.20;;;;;;;;;;5013348;28;20045;-63
2021/09/12 13:09:34;;;;;;;4.53;2.05;;;;;;;;;;5013339;28;20165;-63
2021/09/12 13:12:00;;;;;;;11.27;2.33;;;;;;;;;;5011928;28;20065;-64
2021/09/12 13:14:25;;;;;;;5.20;2.00;;;;;;;;;;5013585;28;20038;-64
2021/09/12 13:16:50;;;;;;;5.20;2.20;;;;;;;;;;5011753;28;20121;-66
2021/09/12 13:19:16;;;;;;;4.82;2.08;;;;;;;;;;5013756;28;20164;-64
2021/09/12 13:21:41;;;;;;;7.57;2.28;;;;;;;;;;5013033;28;20030;-64
2021/09/12 13:24:06;;;;;;;4.65;2.00;;;;;;;;;;5013627;28;20037;-64
2021/09/12 13:26:31;;;;;;;4.50;2.20;;;;;;;;;;5013356;28;20037;-64
2021/09/12 13:28:57;;;;;;;6.70;2.20;;;;;;;;;;5013640;28;20049;-65
2021/09/12 13:31:22;;;;;;;5.13;2.08;;;;;;;;;;5013206;28;20026;-65
2021/09/12 13:33:50;;;;;;;5.45;2.03;;;;;;;;;;5012080;28;20051;-65
2021/09/12 13:36:15;;;;;;;6.03;1.90;;;;;;;;;;5012935;28;20030;-64
2021/09/12 13:38:41;;;;;;;4.65;1.98;;;;;;;;;;5013236;28;20076;-64
2021/09/12 13:41:06;;;;;;;6.03;2.20;;;;;;;;;;5011473;28;20402;-65
2021/09/12 13:43:31;;;;;;;7.50;2.25;;;;;;;;;;5013158;28;20440;-64
2021/09/12 13:45:57;;;;;;;4.32;2.20;;;;;;;;;;5011379;28;20061;-64
2021/09/12 13:48:23;;;;;;;5.10;2.13;;;;;;;;;;5011651;28;20041;-64
2021/09/12 13:50:48;;;;;;;8.63;2.20;;;;;;;;;;5012642;28;20041;-64
2021/09/12 13:53:13;;;;;;;3.35;1.80;;;;;;;;;;5013108;28;20260;-64
2021/09/12 13:55:38;;;;;;;4.55;2.00;;;;;;;;;;5011527;28;20018;-66
2021/09/12 13:58:04;;;;;;;5.18;2.10;;;;;;;;;;5013052;28;20041;-64
2021/09/12 14:00:29;;;;;;;5.30;2.10;;;;;;;;;;5012644;28;20496;-66
2021/09/12 14:02:55;;;;;;;4.90;2.10;;;;;;;;;;5013200;28;20611;-65
2021/09/12 14:05:21;;;;;;;4.18;1.92;;;;;;;;;;5012681;28;20034;-64
2021/09/12 14:07:47;;;;;;;4.63;1.88;;;;;;;;;;5013074;28;20515;-66
2021/09/12 14:10:12;;;;;;;3.65;1.88;;;;;;;;;;5012314;28;20058;-64
2021/09/12 14:12:37;;;;;;;5.35;2.03;;;;;;;;;;5013094;28;20018;-64
2021/09/12 14:15:03;;;;;;;5.32;1.95;;;;;;;;;;5012468;28;20026;-63
2021/09/12 14:17:28;;;;;;;6.00;2.10;;;;;;;;;;5013007;28;20022;-64
2021/09/12 14:19:53;;;;;;;4.75;2.05;;;;;;;;;;5012958;28;20030;-65
2021/09/12 14:22:19;;;;;;;4.93;2.13;;;;;;;;;;5016397;28;20069;-65
2021/09/12 14:24:44;;;;;;;4.80;1.95;;;;;;;;;;5016862;28;20029;-65
2021/09/12 14:27:09;;;;;;;3.63;2.17;;;;;;;;;;5014756;28;20030;-66
2021/09/12 14:29:34;;;;;;;3.72;2.03;;;;;;;;;;5016424;28;20018;-65
2021/09/12 14:32:00;;;;;;;4.95;2.05;;;;;;;;;;5016033;28;20041;-65